createdAt,value
2019-02-12T00:02:16.733Z,4.43
2019-02-12T00:04:45.236Z,6.30
2019-02-12T00:07:13.659Z,3.73
2019-02-12T00:09:42.179Z,3.67
2019-02-12T00:12:10.726Z,3.67
2019-02-12T00:14:39.135Z,4.20
2019-02-12T00:17:07.567Z,5.30
2019-02-12T00:19:35.951Z,3.90
2019-02-12T00:22:04.376Z,3.83
2019-02-12T00:24:32.757Z,4.07
2019-02-12T00:27:01.148Z,12.23
2019-02-12T00:29:29.817Z,7.77
2019-02-12T00:31:58.404Z,3.80
2019-02-12T00:34:26.880Z,5.50
2019-02-12T00:36:55.307Z,4.73
2019-02-12T00:39:23.682Z,4.77
2019-02-12T00:41:52.067Z,4.03
2019-02-12T00:44:20.656Z,5.87
2019-02-12T00:46:49.043Z,5.97
2019-02-12T00:49:17.805Z,4.17
2019-02-12T00:51:46.222Z,3.80
2019-02-12T00:54:14.603Z,3.60
2019-02-12T00:56:42.983Z,6.40
2019-02-12T00:59:11.584Z,4.80
2019-02-12T01:01:39.971Z,3.67
2019-02-12T01:04:08.353Z,3.70
2019-02-12T01:06:38.483Z,3.27
2019-02-12T01:09:07.679Z,4.17
2019-02-12T01:11:36.128Z,3.67
2019-02-12T01:14:04.895Z,4.43
2019-02-12T01:16:33.350Z,3.70
2019-02-12T01:19:02.014Z,3.40
2019-02-12T01:21:30.609Z,4.30
2019-02-12T01:23:58.991Z,4.13
2019-02-12T01:26:27.588Z,4.83
2019-02-12T01:28:56.143Z,4.20
2019-02-12T01:31:24.613Z,4.63
2019-02-12T01:33:54.089Z,4.50
2019-02-12T01:36:22.659Z,5.47
2019-02-12T01:38:51.040Z,4.20
2019-02-12T01:41:19.428Z,4.53
2019-02-12T01:43:47.850Z,4.23
2019-02-12T01:46:16.431Z,4.90
2019-02-12T01:48:45.061Z,5.37
2019-02-12T01:51:13.866Z,4.90
2019-02-12T01:53:42.294Z,7.97
2019-02-12T01:56:10.869Z,7.77
2019-02-12T01:58:39.600Z,5.13
2019-02-12T02:01:08.197Z,6.20
2019-02-12T02:03:36.699Z,5.53
2019-02-12T02:06:05.320Z,7.63
2019-02-12T02:08:33.707Z,6.87
2019-02-12T02:11:02.087Z,6.17
2019-02-12T02:13:30.505Z,5.40
2019-02-12T02:15:58.896Z,4.70
2019-02-12T02:18:27.327Z,5.50
2019-02-12T02:20:55.751Z,4.50
2019-02-12T02:23:24.524Z,4.47
2019-02-12T02:25:52.908Z,5.03
2019-02-12T02:28:24.141Z,4.43
2019-02-12T02:30:52.596Z,4.60
2019-02-12T02:33:20.986Z,4.80
2019-02-12T02:35:50.438Z,4.47
2019-02-12T02:38:18.967Z,5.07
2019-02-12T02:40:47.351Z,5.27
2019-02-12T02:43:15.859Z,5.23
2019-02-12T02:45:44.240Z,5.23
2019-02-12T02:48:12.667Z,5.27
2019-02-12T02:50:41.278Z,5.33
2019-02-12T02:53:09.675Z,5.73
2019-02-12T02:55:38.412Z,4.60
2019-02-12T02:58:06.916Z,6.30
2019-02-12T03:00:35.666Z,4.63
2019-02-12T03:03:04.093Z,4.80
2019-02-12T03:05:32.703Z,3.80
2019-02-12T03:08:01.084Z,3.90
2019-02-12T03:10:29.567Z,4.00
2019-02-12T03:12:58.223Z,3.37
2019-02-12T03:15:27.108Z,4.00
2019-02-12T03:17:55.716Z,3.80
2019-02-12T03:20:24.472Z,3.20
2019-02-12T03:22:53.336Z,4.83
2019-02-12T03:25:21.976Z,2.43
2019-02-12T03:27:50.395Z,4.20
2019-02-12T03:30:19.016Z,3.03
2019-02-12T03:32:47.737Z,4.20
2019-02-12T03:35:16.420Z,2.93
2019-02-12T03:37:45.864Z,2.67
2019-02-12T03:40:14.494Z,2.50
2019-02-12T03:42:42.920Z,2.10
2019-02-12T03:45:12.952Z,2.80
2019-02-12T03:47:41.333Z,1.83
2019-02-12T03:50:11.405Z,2.20
2019-02-12T03:52:40.090Z,2.00
2019-02-12T03:55:11.166Z,2.20
2019-02-12T03:57:39.589Z,6.20
2019-02-12T04:00:11.088Z,5.63
2019-02-12T04:02:51.847Z,2.20
2019-02-12T04:05:20.572Z,5.60
2019-02-12T04:07:48.959Z,3.10
2019-02-12T04:10:17.378Z,3.73
2019-02-12T04:12:45.767Z,3.00
2019-02-12T04:15:14.378Z,2.33
2019-02-12T04:17:42.779Z,2.93
2019-02-12T04:20:11.159Z,3.17
2019-02-12T04:22:39.813Z,4.10
2019-02-12T04:25:08.227Z,5.13
2019-02-12T04:27:36.616Z,3.93
2019-02-12T04:30:06.132Z,2.63
2019-02-12T04:32:34.555Z,3.93
2019-02-12T04:35:02.932Z,2.87
2019-02-12T04:37:31.583Z,2.57
2019-02-12T04:40:01.049Z,4.70
2019-02-12T04:42:29.435Z,2.87
2019-02-12T04:44:57.989Z,4.07
2019-02-12T04:47:26.592Z,3.50
2019-02-12T04:49:55.188Z,2.47
2019-02-12T04:52:31.706Z,2.63
2019-02-12T04:54:53.760Z,2.10
2019-02-12T04:57:22.206Z,2.50
2019-02-12T04:59:50.592Z,2.17
2019-02-12T05:02:19.172Z,2.40
2019-02-12T05:04:47.728Z,2.80
2019-02-12T05:07:16.454Z,2.27
2019-02-12T05:09:46.228Z,3.97
2019-02-12T05:12:16.724Z,3.10
2019-02-12T05:14:45.104Z,2.90
2019-02-12T05:17:13.587Z,2.77
2019-02-12T05:19:42.242Z,2.63
2019-02-12T05:22:10.848Z,2.93
2019-02-12T05:24:39.286Z,2.90
2019-02-12T05:27:07.655Z,3.80
2019-02-12T05:29:36.147Z,2.43
2019-02-12T05:32:04.778Z,2.27
2019-02-12T05:34:33.157Z,2.40
2019-02-12T05:37:01.698Z,2.77
2019-02-12T05:39:30.428Z,2.20
2019-02-12T05:42:00.144Z,2.57
2019-02-12T05:44:28.516Z,2.57
2019-02-12T05:46:56.944Z,3.20
2019-02-12T05:49:25.476Z,2.77
2019-02-12T05:51:54.127Z,4.20
2019-02-12T05:54:23.141Z,3.03
2019-02-12T05:56:51.681Z,2.97
2019-02-12T05:59:20.402Z,4.67
2019-02-12T06:01:48.982Z,9.13
2019-02-12T06:04:17.370Z,7.93
2019-02-12T06:06:45.928Z,25.27
2019-02-12T06:09:14.797Z,29.80
2019-02-12T06:11:43.201Z,18.43
2019-02-12T06:14:11.594Z,13.83
2019-02-12T06:16:40.298Z,13.77
2019-02-12T06:19:08.956Z,17.17
2019-02-12T06:21:37.529Z,20.53
2019-02-12T06:24:06.025Z,29.87
2019-02-12T06:26:34.447Z,7.17
2019-02-12T06:29:02.920Z,6.30
2019-02-12T06:31:31.354Z,20.03
2019-02-12T06:33:59.826Z,15.70
2019-02-12T06:36:28.395Z,12.30
2019-02-12T06:38:57.097Z,13.23
2019-02-12T06:41:25.478Z,4.93
2019-02-12T06:43:55.315Z,11.93
2019-02-12T06:46:23.744Z,6.90
2019-02-12T06:48:52.291Z,5.47
2019-02-12T06:51:20.958Z,5.37
2019-02-12T06:53:49.467Z,5.67
2019-02-12T06:56:17.934Z,6.03
2019-02-12T06:58:46.493Z,6.83
2019-02-12T07:01:15.094Z,5.40
2019-02-12T07:03:52.340Z,6.67
2019-02-12T07:06:24.218Z,10.83
2019-02-12T07:08:56.239Z,8.57
2019-02-12T07:11:30.903Z,15.93
2019-02-12T07:14:22.070Z,13.70
2019-02-12T07:17:14.863Z,13.83
2019-02-12T07:19:52.894Z,7.67
2019-02-12T07:22:36.534Z,8.03
2019-02-12T07:25:25.425Z,9.03
2019-02-12T07:28:12.450Z,17.73
2019-02-12T07:31:02.336Z,12.23
2019-02-12T07:33:39.917Z,7.13
2019-02-12T07:36:26.918Z,6.45
2019-02-12T07:39:25.182Z,4.17
2019-02-12T07:42:26.983Z,4.00
2019-02-12T07:45:15.563Z,4.90
2019-02-12T07:47:52.876Z,3.57
2019-02-12T07:50:27.100Z,4.60
2019-02-12T07:53:07.683Z,4.63
2019-02-12T07:55:42.001Z,5.27
2019-02-12T07:58:28.625Z,7.10
2019-02-12T08:01:03.644Z,4.70
2019-02-12T08:04:04.615Z,5.63
2019-02-12T08:06:45.444Z,5.63
2019-02-12T08:09:45.705Z,5.10
2019-02-12T08:12:37.040Z,5.47
2019-02-12T08:15:17.762Z,6.77
2019-02-12T08:17:52.158Z,5.97
2019-02-12T08:20:51.277Z,4.47
2019-02-12T08:23:41.234Z,4.33
2019-02-12T08:26:26.341Z,5.47
2019-02-12T08:29:14.259Z,5.27
2019-02-12T08:32:04.109Z,6.43
2019-02-12T08:34:45.277Z,16.43
2019-02-12T08:37:22.803Z,11.60
2019-02-12T08:40:13.790Z,8.20
2019-02-12T08:42:51.547Z,5.57
2019-02-12T08:45:35.083Z,7.50
2019-02-12T08:48:13.860Z,5.10
2019-02-12T08:50:58.169Z,5.37
2019-02-12T08:53:39.149Z,6.83
2019-02-12T08:56:26.468Z,4.23
2019-02-12T08:59:17.820Z,5.60
2019-02-12T09:01:52.193Z,8.17
2019-02-12T09:04:45.295Z,5.70
2019-02-12T09:07:19.460Z,6.47
2019-02-12T09:10:25.674Z,5.10
2019-02-12T09:13:06.438Z,4.83
2019-02-12T09:15:43.794Z,5.63
2019-02-12T09:18:32.449Z,5.70
2019-02-12T09:21:07.058Z,5.57
2019-02-12T09:23:38.883Z,8.03
2019-02-12T09:26:22.557Z,5.60
2019-02-12T09:28:59.979Z,5.73
2019-02-12T09:31:40.545Z,5.20
2019-02-12T09:34:36.758Z,5.97
2019-02-12T09:37:25.192Z,5.43
2019-02-12T09:40:19.198Z,8.63
2019-02-12T09:43:05.373Z,6.00
2019-02-12T09:45:53.481Z,6.40
2019-02-12T09:48:31.183Z,7.27
2019-02-12T09:51:15.759Z,5.20
2019-02-12T09:53:57.287Z,4.93
2019-02-12T09:56:58.897Z,16.90
2019-02-12T09:59:48.927Z,9.73
2019-02-12T10:02:26.676Z,14.53
2019-02-12T10:05:06.494Z,15.30
2019-02-12T10:07:43.489Z,5.77
2019-02-12T10:10:36.419Z,6.13
2019-02-12T10:13:18.796Z,9.73
2019-02-12T10:15:57.245Z,7.00
2019-02-12T10:18:44.271Z,6.20
2019-02-12T10:21:49.471Z,6.10
2019-02-12T10:24:27.890Z,5.43
2019-02-12T10:27:28.839Z,6.77
2019-02-12T10:30:22.121Z,8.33
2019-02-12T10:32:51.700Z,7.73
2019-02-12T10:35:21.277Z,6.07
2019-02-12T10:37:49.768Z,4.47
2019-02-12T10:40:18.264Z,6.10
2019-02-12T10:42:46.679Z,5.57
2019-02-12T10:45:15.347Z,6.60
2019-02-12T10:47:44.021Z,8.47
2019-02-12T10:50:12.407Z,7.73
2019-02-12T10:52:42.095Z,7.37
2019-02-12T10:55:10.908Z,6.97
2019-02-12T10:57:39.592Z,5.77
2019-02-12T11:00:13.447Z,5.23
2019-02-12T11:02:42.123Z,5.03
2019-02-12T11:05:10.842Z,5.33
2019-02-12T11:07:39.904Z,5.30
2019-02-12T11:10:09.747Z,6.33
2019-02-12T11:12:38.135Z,10.40
2019-02-12T11:15:08.525Z,16.43
2019-02-12T11:17:36.986Z,32.00
2019-02-12T11:20:08.119Z,17.90
2019-02-12T11:22:36.547Z,38.40
2019-02-12T11:25:07.670Z,47.37
2019-02-12T11:27:36.167Z,14.53
2019-02-12T11:30:07.894Z,16.67
2019-02-12T11:32:36.267Z,16.93
2019-02-12T11:35:07.591Z,18.60
2019-02-12T11:37:36.050Z,14.93
2019-02-12T11:40:06.931Z,8.70
2019-02-12T11:42:35.504Z,18.73
2019-02-12T11:45:05.154Z,10.50
2019-02-12T11:47:33.543Z,7.70
2019-02-12T11:50:02.073Z,11.17
2019-02-12T11:52:30.989Z,7.97
2019-02-12T11:55:00.317Z,24.50
2019-02-12T11:57:29.273Z,12.07
2019-02-12T11:59:57.692Z,27.67
2019-02-12T12:02:30.338Z,8.87
2019-02-12T12:04:59.146Z,10.60
2019-02-12T12:07:27.752Z,28.10
2019-02-12T12:09:56.509Z,12.10
2019-02-12T12:12:27.176Z,18.10
2019-02-12T12:14:55.866Z,12.40
2019-02-12T12:17:24.361Z,14.97
2019-02-12T12:19:52.757Z,15.20
2019-02-12T12:22:21.378Z,14.23
2019-02-12T12:24:51.697Z,56.23
2019-02-12T12:27:20.437Z,18.47
2019-02-12T12:29:48.868Z,12.60
2019-02-12T12:32:17.527Z,10.03
2019-02-12T12:34:45.919Z,10.03
2019-02-12T12:37:19.483Z,12.93
2019-02-12T12:39:47.985Z,14.00
2019-02-12T12:42:19.702Z,44.50
2019-02-12T12:44:49.565Z,15.77
2019-02-12T12:47:21.491Z,9.10
2019-02-12T12:49:50.839Z,10.43
2019-02-12T12:52:19.514Z,19.20
2019-02-12T12:54:48.558Z,50.10
2019-02-12T12:57:18.150Z,28.07
2019-02-12T12:59:47.364Z,25.07
2019-02-12T13:02:15.842Z,25.70
2019-02-12T13:04:45.243Z,14.83
2019-02-12T13:07:15.527Z,23.57
2019-02-12T13:09:43.991Z,14.83
2019-02-12T13:12:12.503Z,18.10
2019-02-12T13:14:41.195Z,60.90
2019-02-12T13:17:09.632Z,51.70
2019-02-12T13:19:38.388Z,108.33
2019-02-12T13:22:07.472Z,52.70
2019-02-12T13:24:36.140Z,145.17
2019-02-12T13:27:04.687Z,145.93
2019-02-12T13:29:34.674Z,70.27
2019-02-12T13:32:03.325Z,41.20
2019-02-12T13:34:31.742Z,14.93
2019-02-12T13:37:00.323Z,28.73
2019-02-12T13:39:28.733Z,62.87
2019-02-12T13:41:57.320Z,83.10
2019-02-12T13:44:26.048Z,53.27
2019-02-12T13:46:54.443Z,78.70
2019-02-12T13:49:23.024Z,34.33
2019-02-12T13:51:51.452Z,29.93
2019-02-12T13:54:20.291Z,25.37
2019-02-12T13:56:48.899Z,32.10
2019-02-12T13:59:18.581Z,65.93
2019-02-12T14:01:47.092Z,21.10
2019-02-12T14:04:15.487Z,35.30
2019-02-12T14:06:44.401Z,50.63
2019-02-12T14:09:12.794Z,35.50
2019-02-12T14:11:41.250Z,10.37
2019-02-12T14:14:10.578Z,11.17
2019-02-12T14:16:39.510Z,14.03
2019-02-12T14:19:09.078Z,18.40
2019-02-12T14:21:38.167Z,8.93
2019-02-12T14:24:06.556Z,12.03
2019-02-12T14:26:36.688Z,25.10
2019-02-12T14:29:05.534Z,29.90
2019-02-12T14:31:33.916Z,42.03
2019-02-12T14:34:02.435Z,17.13
2019-02-12T14:36:30.869Z,13.20
2019-02-12T14:38:59.270Z,20.57
2019-02-12T14:41:27.666Z,16.73
2019-02-12T14:43:56.416Z,19.30
2019-02-12T14:46:27.288Z,8.03
2019-02-12T14:48:57.266Z,7.07
2019-02-12T14:51:26.673Z,8.93
2019-02-12T14:53:55.785Z,9.83
2019-02-12T14:56:25.440Z,17.80
2019-02-12T14:58:55.257Z,12.30
2019-02-12T15:01:27.032Z,7.67
2019-02-12T15:03:55.398Z,9.80
2019-02-12T15:06:23.872Z,9.10
2019-02-12T15:08:52.696Z,9.17
2019-02-12T15:11:21.804Z,11.60
2019-02-12T15:13:50.642Z,9.20
2019-02-12T15:16:28.693Z,7.60
2019-02-12T15:18:57.733Z,9.23
2019-02-12T15:21:26.274Z,7.70
2019-02-12T15:23:55.997Z,8.63
2019-02-12T15:26:25.417Z,8.47
2019-02-12T15:28:54.752Z,9.07
2019-02-12T15:31:23.915Z,9.70
2019-02-12T15:33:52.425Z,13.20
2019-02-12T15:36:21.091Z,10.23
2019-02-12T15:38:50.310Z,10.30
2019-02-12T15:41:19.381Z,17.80
2019-02-12T15:43:47.960Z,11.67
2019-02-12T15:46:19.129Z,10.53
2019-02-12T15:48:48.842Z,10.83
2019-02-12T15:51:17.797Z,17.47
2019-02-12T15:53:48.044Z,17.37
2019-02-12T15:56:17.573Z,15.10
2019-02-12T15:58:46.767Z,24.97
2019-02-12T16:01:20.499Z,16.47
2019-02-12T16:03:49.712Z,15.23
2019-02-12T16:06:19.313Z,22.07
2019-02-12T16:08:49.253Z,11.00
2019-02-12T16:11:19.129Z,16.30
2019-02-12T16:13:48.977Z,13.73
2019-02-12T16:16:17.783Z,12.57
2019-02-12T16:18:47.828Z,12.67
2019-02-12T16:21:17.269Z,15.33
2019-02-12T16:23:46.643Z,12.97
2019-02-12T16:26:15.818Z,10.57
2019-02-12T16:28:44.504Z,10.97
2019-02-12T16:31:12.955Z,20.50
2019-02-12T16:33:41.816Z,47.77
2019-02-12T16:36:11.249Z,37.50
2019-02-12T16:38:40.206Z,41.50
2019-02-12T16:41:09.066Z,24.23
2019-02-12T16:43:38.683Z,30.67
2019-02-12T16:46:14.446Z,98.20
2019-02-12T16:48:42.982Z,47.27
2019-02-12T16:51:11.836Z,37.63
2019-02-12T16:53:40.403Z,22.13
2019-02-12T16:56:09.309Z,72.33
2019-02-12T16:58:39.744Z,43.23
2019-02-12T17:01:08.360Z,58.17
2019-02-12T17:03:40.752Z,46.60
2019-02-12T17:06:10.850Z,53.87
2019-02-12T17:08:40.416Z,38.17
2019-02-12T17:11:11.941Z,46.20
2019-02-12T17:13:42.250Z,25.67
2019-02-12T17:16:10.959Z,47.90
2019-02-12T17:18:39.694Z,34.43
2019-02-12T17:21:08.934Z,48.07
2019-02-12T17:23:37.563Z,23.30
2019-02-12T17:26:06.196Z,110.90
2019-02-12T17:28:34.578Z,86.93
2019-02-12T17:31:03.188Z,48.67
2019-02-12T17:33:31.684Z,64.77
2019-02-12T17:36:00.693Z,64.20
2019-02-12T17:38:29.602Z,51.77
2019-02-12T17:40:58.009Z,94.07
2019-02-12T17:43:26.544Z,67.07
2019-02-12T17:45:55.369Z,49.47
2019-02-12T17:48:23.748Z,36.83
2019-02-12T17:50:52.148Z,58.37
2019-02-12T17:53:24.028Z,74.37
2019-02-12T17:55:52.527Z,118.23
2019-02-12T17:58:21.083Z,46.30
2019-02-12T18:00:49.591Z,48.57
2019-02-12T18:03:18.345Z,38.27
2019-02-12T18:05:46.828Z,39.47
2019-02-12T18:08:16.242Z,40.83
2019-02-12T18:11:04.332Z,50.43
2019-02-12T18:13:33.475Z,84.87
2019-02-12T18:16:02.318Z,90.80
2019-02-12T18:18:30.797Z,68.03
2019-02-12T18:20:59.686Z,92.20
2019-02-12T18:23:28.370Z,22.10
2019-02-12T18:25:56.850Z,48.60
2019-02-12T18:28:25.597Z,70.53
2019-02-12T18:30:54.385Z,46.87
2019-02-12T18:33:23.101Z,55.57
2019-02-12T18:35:52.003Z,58.80
2019-02-12T18:38:20.799Z,85.80
2019-02-12T18:40:49.452Z,35.00
2019-02-12T18:43:18.000Z,54.43
2019-02-12T18:45:47.510Z,82.77
2019-02-12T18:48:15.999Z,81.93
2019-02-12T18:50:44.954Z,94.87
2019-02-12T18:53:14.900Z,53.83
2019-02-12T18:55:43.380Z,39.50
2019-02-12T18:58:12.163Z,34.33
2019-02-12T19:00:41.698Z,56.43
2019-02-12T19:03:10.222Z,88.27
2019-02-12T19:05:38.715Z,97.00
2019-02-12T19:08:07.244Z,39.10
2019-02-12T19:10:37.030Z,89.57
2019-02-12T19:13:05.552Z,65.67
2019-02-12T19:15:34.668Z,39.17
2019-02-12T19:18:15.836Z,29.53
2019-02-12T19:20:44.709Z,31.07
2019-02-12T19:23:13.730Z,36.20
2019-02-12T19:25:42.486Z,27.43
2019-02-12T19:28:13.878Z,33.13
2019-02-12T19:30:42.501Z,44.33
2019-02-12T19:33:17.587Z,26.07
2019-02-12T19:35:48.034Z,19.40
2019-02-12T19:38:16.503Z,13.77
2019-02-12T19:40:45.705Z,15.27
2019-02-12T19:43:15.539Z,18.70
2019-02-12T19:45:44.104Z,15.80
2019-02-12T19:48:12.898Z,14.13
2019-02-12T19:50:41.349Z,11.87
2019-02-12T19:53:28.193Z,18.30
2019-02-12T19:55:56.765Z,19.10
2019-02-12T19:58:25.516Z,12.83
2019-02-12T20:00:54.625Z,16.90
2019-02-12T20:03:23.372Z,14.73
2019-02-12T20:05:52.403Z,12.17
2019-02-12T20:08:21.397Z,12.20
2019-02-12T20:10:50.350Z,10.63
2019-02-12T20:13:19.261Z,12.73
2019-02-12T20:15:48.333Z,25.33
2019-02-12T20:18:16.802Z,28.00
2019-02-12T20:20:45.504Z,12.30
2019-02-12T20:23:14.388Z,17.50
2019-02-12T20:25:44.407Z,17.17
2019-02-12T20:31:17.832Z,30.27
2019-02-12T20:33:46.594Z,16.37
2019-02-12T20:36:15.294Z,18.27
2019-02-12T20:38:43.824Z,144.93
2019-02-12T20:41:12.291Z,49.47
2019-02-12T20:43:41.495Z,44.10
2019-02-12T20:46:10.552Z,21.87
2019-02-12T20:48:40.025Z,13.63
2019-02-12T20:51:08.730Z,17.10
2019-02-12T20:53:37.481Z,16.23
2019-02-12T20:56:06.069Z,16.63
2019-02-12T20:58:34.699Z,17.57
2019-02-12T21:01:03.446Z,17.87
2019-02-12T21:03:32.131Z,15.37
2019-02-12T21:06:00.644Z,12.60
2019-02-12T21:08:29.047Z,16.50
2019-02-12T21:10:57.899Z,13.27
2019-02-12T21:13:27.159Z,12.97
2019-02-12T21:15:56.616Z,13.30
2019-02-12T21:18:25.590Z,13.30
2019-02-12T21:20:53.903Z,13.77
2019-02-12T21:23:22.571Z,15.27
2019-02-12T21:25:51.567Z,14.17
2019-02-12T21:28:20.035Z,18.50
2019-02-12T21:30:48.628Z,19.30
2019-02-12T21:33:18.647Z,16.03
2019-02-12T21:35:47.324Z,17.63
2019-02-12T21:38:16.458Z,12.87
2019-02-12T21:40:45.293Z,12.23
2019-02-12T21:43:13.991Z,11.07
2019-02-12T21:45:42.454Z,13.33
2019-02-12T21:48:10.998Z,13.37
2019-02-12T21:50:39.410Z,11.43
2019-02-12T21:53:10.092Z,11.73
2019-02-12T21:55:38.475Z,14.83
2019-02-12T21:58:07.472Z,19.63
2019-02-12T22:00:36.189Z,20.47
2019-02-12T22:03:05.337Z,16.07
2019-02-12T22:05:34.039Z,18.63
2019-02-12T22:08:03.279Z,28.23
2019-02-12T22:10:32.183Z,40.63
2019-02-12T22:13:00.715Z,39.90
2019-02-12T22:15:30.815Z,54.50
2019-02-12T22:18:00.575Z,26.93
2019-02-12T22:20:29.017Z,20.80
2019-02-12T22:22:57.423Z,31.60
2019-02-12T22:25:25.861Z,14.73
2019-02-12T22:27:54.260Z,25.40
2019-02-12T22:30:24.524Z,22.37
2019-02-12T22:32:52.982Z,17.07
2019-02-12T22:35:21.524Z,24.10
2019-02-12T22:37:50.115Z,12.53
2019-02-12T22:40:19.981Z,24.80
2019-02-12T22:42:48.614Z,17.33
2019-02-12T22:45:22.421Z,22.23
2019-02-12T22:48:10.276Z,16.57
2019-02-12T22:50:39.200Z,18.90
2019-02-12T22:53:07.564Z,18.90
2019-02-12T22:55:36.170Z,17.33
2019-02-12T22:58:04.721Z,15.63
2019-02-12T23:00:49.595Z,16.70
2019-02-12T23:03:18.531Z,12.70
2019-02-12T23:05:47.011Z,13.03
2019-02-12T23:08:16.018Z,13.83
2019-02-12T23:10:44.609Z,14.70
2019-02-12T23:13:13.275Z,19.37
2019-02-12T23:15:41.735Z,11.27
2019-02-12T23:18:10.129Z,14.30
2019-02-12T23:20:39.756Z,11.73
2019-02-12T23:23:08.718Z,16.20
2019-02-12T23:25:37.660Z,16.37
2019-02-12T23:28:06.146Z,11.93
2019-02-12T23:30:34.840Z,11.63
2019-02-12T23:33:03.156Z,11.83
2019-02-12T23:35:31.817Z,10.80
2019-02-12T23:38:00.475Z,15.13
2019-02-12T23:40:28.868Z,13.87
2019-02-12T23:42:57.641Z,15.27
2019-02-12T23:45:26.068Z,11.47
2019-02-12T23:47:54.603Z,10.33
2019-02-12T23:50:23.081Z,10.50
2019-02-12T23:52:51.511Z,12.43
2019-02-12T23:55:20.248Z,12.10
2019-02-12T23:57:48.636Z,18.17
